Main page
METAR-TAF:

METAR-TAF

Airports :

Shiraz, Iran

Shiraz International Airport

latitude: 29-32N, longitude: 052-35E, elevation: 1486 m

Current weather observation

The report was made 10 minutes ago, at 03:30 UTC
Calm wind
Temperature 19°C
Humidity 43%
Pressure 1022 hPa
Visibility: 5000 m
widespread dust

METAR: OISS 290330Z 00000KT 5000 DU NSC 19/06 Q1022 A3018

Time: 08:10 (03:40 UTC)

Forecast

The report was made 4 hours and 40 minutes ago, at 23:00 UTC
Forecast valid from 29 at 00 UTC to 30 at 06 UTC
Wind 8 kt from the West
Visibility: 8000 m
Few clouds at a height of 4000 ft
Temporary
from 29 at 10 UTC to 29 at 16 UTC
Few clouds at a height of 3000 ft, Cumulonimbus.
Scattered clouds at a height of 4000 ft
Broken clouds at a height of 10000 ft
thunderstorm, rain

TAF: OISS 282300Z 2900/3006 26004MPS 8000 FEW040 TEMPO 2910/2916 TSRA FEW030CB SCT040 BKN100

Weather observations and forecasts of more than 4000 airports (METAR and TAF reports).

The available stations are represented by yellow and red dots on the map.

Hover mouse over dot to see the name of the station.

Then click to see weather observations and forecasts.

To change the map : click on the green buttons with a black cross to zoom in, on the green button with a dash to zoom out, or on the green arrows for adjacent maps.


METAR-TAF: